sensor_id;sensor_type;location;lat;lon;timestamp;pressure;altitude;pressure_sealevel;temperature
74533;BMP180;63012;51.096;-115.366;2022-10-17T00:00:58;87452.00;;;14.60
74533;BMP180;63012;51.096;-115.366;2022-10-17T00:03:25;87452.60;;;14.50
74533;BMP180;63012;51.096;-115.366;2022-10-17T00:05:52;87456.00;;;14.48
74533;BMP180;63012;51.096;-115.366;2022-10-17T00:08:19;87457.40;;;14.40
74533;BMP180;63012;51.096;-115.366;2022-10-17T00:10:57;87455.40;;;14.40
74533;BMP180;63012;51.096;-115.366;2022-10-17T00:13:25;87456.40;;;14.30
74533;BMP180;63012;51.096;-115.366;2022-10-17T00:15:53;87460.40;;;14.20
74533;BMP180;63012;51.096;-115.366;2022-10-17T00:18:20;87458.60;;;14.10
74533;BMP180;63012;51.096;-115.366;2022-10-17T00:20:47;87453.20;;;14.00
74533;BMP180;63012;51.096;-115.366;2022-10-17T00:23:14;87454.00;;;13.98
74533;BMP180;63012;51.096;-115.366;2022-10-17T00:25:41;87457.20;;;13.90
74533;BMP180;63012;51.096;-115.366;2022-10-17T00:28:11;87452.20;;;13.78
74533;BMP180;63012;51.096;-115.366;2022-10-17T00:30:39;87449.60;;;13.70
74533;BMP180;63012;51.096;-115.366;2022-10-17T00:33:06;87458.80;;;13.60
74533;BMP180;63012;51.096;-115.366;2022-10-17T00:35:33;87454.00;;;13.50
74533;BMP180;63012;51.096;-115.366;2022-10-17T00:38:00;87457.00;;;13.40
74533;BMP180;63012;51.096;-115.366;2022-10-17T00:40:27;87452.60;;;13.30
74533;BMP180;63012;51.096;-115.366;2022-10-17T00:42:54;87452.60;;;13.20
74533;BMP180;63012;51.096;-115.366;2022-10-17T00:45:29;87455.80;;;13.10
74533;BMP180;63012;51.096;-115.366;2022-10-17T00:48:08;87457.20;;;13.00
74533;BMP180;63012;51.096;-115.366;2022-10-17T00:50:40;87456.00;;;12.90
74533;BMP180;63012;51.096;-115.366;2022-10-17T00:53:09;87464.00;;;12.80
74533;BMP180;63012;51.096;-115.366;2022-10-17T00:55:49;87460.60;;;12.74
74533;BMP180;63012;51.096;-115.366;2022-10-17T00:58:17;87462.40;;;12.60
74533;BMP180;63012;51.096;-115.366;2022-10-17T01:00:47;87462.80;;;12.44
74533;BMP180;63012;51.096;-115.366;2022-10-17T01:03:15;87467.40;;;12.30
74533;BMP180;63012;51.096;-115.366;2022-10-17T01:05:42;87468.00;;;12.12
74533;BMP180;63012;51.096;-115.366;2022-10-17T01:08:14;87469.40;;;12.04
74533;BMP180;63012;51.096;-115.366;2022-10-17T01:13:51;87470.20;;;11.90
74533;BMP180;63012;51.096;-115.366;2022-10-17T01:16:47;87467.80;;;11.80
74533;BMP180;63012;51.096;-115.366;2022-10-17T01:19:56;87472.80;;;11.74
74533;BMP180;63012;51.096;-115.366;2022-10-17T01:22:46;87473.20;;;11.60
74533;BMP180;63012;51.096;-115.366;2022-10-17T01:25:36;87474.40;;;11.50
74533;BMP180;63012;51.096;-115.366;2022-10-17T01:28:37;87475.20;;;11.40
74533;BMP180;63012;51.096;-115.366;2022-10-17T01:31:14;87481.00;;;11.20
74533;BMP180;63012;51.096;-115.366;2022-10-17T01:34:05;87483.60;;;11.10
74533;BMP180;63012;51.096;-115.366;2022-10-17T01:37:11;87483.20;;;11.00
74533;BMP180;63012;51.096;-115.366;2022-10-17T01:40:09;87479.60;;;10.90
74533;BMP180;63012;51.096;-115.366;2022-10-17T01:46:10;87479.20;;;10.60
74533;BMP180;63012;51.096;-115.366;2022-10-17T01:48:43;87478.00;;;10.48
74533;BMP180;63012;51.096;-115.366;2022-10-17T01:51:27;87483.40;;;10.40
74533;BMP180;63012;51.096;-115.366;2022-10-17T01:54:06;87481.40;;;10.30
74533;BMP180;63012;51.096;-115.366;2022-10-17T01:56:37;87480.00;;;10.20
74533;BMP180;63012;51.096;-115.366;2022-10-17T01:59:30;87480.00;;;10.10
74533;BMP180;63012;51.096;-115.366;2022-10-17T02:02:01;87484.80;;;10.06
74533;BMP180;63012;51.096;-115.366;2022-10-17T02:04:29;87476.00;;;10.04
74533;BMP180;63012;51.096;-115.366;2022-10-17T02:06:56;87483.60;;;10.10
74533;BMP180;63012;51.096;-115.366;2022-10-17T02:09:25;87481.00;;;10.10
74533;BMP180;63012;51.096;-115.366;2022-10-17T02:15:16;87481.00;;;10.10
74533;BMP180;63012;51.096;-115.366;2022-10-17T02:20:38;87473.60;;;10.00
74533;BMP180;63012;51.096;-115.366;2022-10-17T02:26:12;87480.80;;;9.90
74533;BMP180;63012;51.096;-115.366;2022-10-17T02:29:09;87481.60;;;9.90
74533;BMP180;63012;51.096;-115.366;2022-10-17T02:31:55;87477.20;;;9.90
74533;BMP180;63012;51.096;-115.366;2022-10-17T02:34:33;87477.60;;;9.80
74533;BMP180;63012;51.096;-115.366;2022-10-17T02:37:06;87487.00;;;9.80
74533;BMP180;63012;51.096;-115.366;2022-10-17T02:39:35;87484.40;;;9.78
74533;BMP180;63012;51.096;-115.366;2022-10-17T02:42:09;87482.80;;;9.70
74533;BMP180;63012;51.096;-115.366;2022-10-17T02:44:43;87484.20;;;9.62
74533;BMP180;63012;51.096;-115.366;2022-10-17T02:49:56;87480.80;;;9.50
74533;BMP180;63012;51.096;-115.366;2022-10-17T02:52:56;87478.20;;;9.50
74533;BMP180;63012;51.096;-115.366;2022-10-17T02:55:38;87485.00;;;9.50
74533;BMP180;63012;51.096;-115.366;2022-10-17T02:58:33;87493.20;;;9.50
74533;BMP180;63012;51.096;-115.366;2022-10-17T03:01:04;87485.20;;;9.50
74533;BMP180;63012;51.096;-115.366;2022-10-17T03:03:32;87485.60;;;9.40
74533;BMP180;63012;51.096;-115.366;2022-10-17T03:05:59;87481.80;;;9.40
74533;BMP180;63012;51.096;-115.366;2022-10-17T03:08:27;87486.40;;;9.40
74533;BMP180;63012;51.096;-115.366;2022-10-17T03:10:54;87485.60;;;9.40
74533;BMP180;63012;51.096;-115.366;2022-10-17T03:13:21;87481.00;;;9.40
74533;BMP180;63012;51.096;-115.366;2022-10-17T03:15:48;87484.80;;;9.40
74533;BMP180;63012;51.096;-115.366;2022-10-17T03:18:16;87485.00;;;9.30
74533;BMP180;63012;51.096;-115.366;2022-10-17T03:20:43;87489.00;;;9.30
74533;BMP180;63012;51.096;-115.366;2022-10-17T03:23:10;87487.80;;;9.30
74533;BMP180;63012;51.096;-115.366;2022-10-17T03:25:38;87486.00;;;9.20
74533;BMP180;63012;51.096;-115.366;2022-10-17T03:28:05;87487.00;;;9.18
74533;BMP180;63012;51.096;-115.366;2022-10-17T03:30:33;87490.60;;;9.10
74533;BMP180;63012;51.096;-115.366;2022-10-17T03:33:00;87480.00;;;9.02
74533;BMP180;63012;51.096;-115.366;2022-10-17T03:35:27;87483.80;;;9.10
74533;BMP180;63012;51.096;-115.366;2022-10-17T03:37:55;87484.00;;;9.04
74533;BMP180;63012;51.096;-115.366;2022-10-17T03:40:22;87486.00;;;9.00
74533;BMP180;63012;51.096;-115.366;2022-10-17T03:42:49;87488.40;;;9.00
74533;BMP180;63012;51.096;-115.366;2022-10-17T03:45:16;87489.80;;;9.00
74533;BMP180;63012;51.096;-115.366;2022-10-17T03:47:43;87487.80;;;8.90
74533;BMP180;63012;51.096;-115.366;2022-10-17T03:50:10;87489.40;;;8.94
74533;BMP180;63012;51.096;-115.366;2022-10-17T03:52:37;87486.80;;;8.98
74533;BMP180;63012;51.096;-115.366;2022-10-17T03:55:05;87487.60;;;8.92
74533;BMP180;63012;51.096;-115.366;2022-10-17T03:57:34;87488.60;;;8.90
74533;BMP180;63012;51.096;-115.366;2022-10-17T04:00:03;87490.20;;;8.86
74533;BMP180;63012;51.096;-115.366;2022-10-17T04:02:30;87489.00;;;8.80
74533;BMP180;63012;51.096;-115.366;2022-10-17T04:04:57;87496.80;;;8.70
74533;BMP180;63012;51.096;-115.366;2022-10-17T04:07:25;87497.00;;;8.70
74533;BMP180;63012;51.096;-115.366;2022-10-17T04:09:52;87498.60;;;8.70
74533;BMP180;63012;51.096;-115.366;2022-10-17T04:12:19;87493.20;;;8.70
74533;BMP180;63012;51.096;-115.366;2022-10-17T04:14:45;87497.00;;;8.68
74533;BMP180;63012;51.096;-115.366;2022-10-17T04:17:12;87495.00;;;8.62
74533;BMP180;63012;51.096;-115.366;2022-10-17T04:19:39;87496.80;;;8.60
74533;BMP180;63012;51.096;-115.366;2022-10-17T04:22:06;87494.80;;;8.56
74533;BMP180;63012;51.096;-115.366;2022-10-17T04:24:33;87493.40;;;8.50
74533;BMP180;63012;51.096;-115.366;2022-10-17T04:27:01;87490.80;;;8.50
74533;BMP180;63012;51.096;-115.366;2022-10-17T04:29:28;87493.00;;;8.42
74533;BMP180;63012;51.096;-115.366;2022-10-17T04:31:55;87484.80;;;8.46
74533;BMP180;63012;51.096;-115.366;2022-10-17T04:34:22;87488.00;;;8.46
74533;BMP180;63012;51.096;-115.366;2022-10-17T04:36:49;87492.40;;;8.40
74533;BMP180;63012;51.096;-115.366;2022-10-17T04:39:17;87483.80;;;8.40
74533;BMP180;63012;51.096;-115.366;2022-10-17T04:41:44;87492.80;;;8.40
74533;BMP180;63012;51.096;-115.366;2022-10-17T04:44:11;87490.00;;;8.40
74533;BMP180;63012;51.096;-115.366;2022-10-17T04:46:38;87495.20;;;8.30
74533;BMP180;63012;51.096;-115.366;2022-10-17T04:49:05;87490.00;;;8.30
74533;BMP180;63012;51.096;-115.366;2022-10-17T04:51:32;87487.80;;;8.40
74533;BMP180;63012;51.096;-115.366;2022-10-17T04:53:59;87489.80;;;8.50
74533;BMP180;63012;51.096;-115.366;2022-10-17T04:56:26;87490.00;;;8.64
74533;BMP180;63012;51.096;-115.366;2022-10-17T04:58:53;87488.00;;;8.80
74533;BMP180;63012;51.096;-115.366;2022-10-17T05:01:22;87483.40;;;8.88
74533;BMP180;63012;51.096;-115.366;2022-10-17T05:03:50;87491.60;;;8.90
74533;BMP180;63012;51.096;-115.366;2022-10-17T05:06:23;87490.20;;;9.00
74533;BMP180;63012;51.096;-115.366;2022-10-17T05:08:53;87488.80;;;9.00
74533;BMP180;63012;51.096;-115.366;2022-10-17T05:11:27;87483.40;;;9.10
74533;BMP180;63012;51.096;-115.366;2022-10-17T05:13:59;87485.60;;;9.20
74533;BMP180;63012;51.096;-115.366;2022-10-17T05:16:28;87483.40;;;9.20
74533;BMP180;63012;51.096;-115.366;2022-10-17T05:18:57;87483.40;;;9.20
74533;BMP180;63012;51.096;-115.366;2022-10-17T05:21:27;87487.60;;;9.20
74533;BMP180;63012;51.096;-115.366;2022-10-17T05:23:55;87490.00;;;9.30
74533;BMP180;63012;51.096;-115.366;2022-10-17T05:26:24;87495.20;;;9.30
74533;BMP180;63012;51.096;-115.366;2022-10-17T05:28:52;87487.20;;;9.30
74533;BMP180;63012;51.096;-115.366;2022-10-17T05:31:20;87489.00;;;9.30
74533;BMP180;63012;51.096;-115.366;2022-10-17T05:33:47;87489.20;;;9.30
74533;BMP180;63012;51.096;-115.366;2022-10-17T05:36:13;87496.40;;;9.20
74533;BMP180;63012;51.096;-115.366;2022-10-17T05:38:41;87489.20;;;9.20
74533;BMP180;63012;51.096;-115.366;2022-10-17T05:41:09;87486.60;;;9.10
74533;BMP180;63012;51.096;-115.366;2022-10-17T05:43:36;87488.00;;;9.10
74533;BMP180;63012;51.096;-115.366;2022-10-17T05:46:05;87485.20;;;9.00
74533;BMP180;63012;51.096;-115.366;2022-10-17T05:48:32;87490.60;;;9.00
74533;BMP180;63012;51.096;-115.366;2022-10-17T05:51:09;87492.20;;;9.00
74533;BMP180;63012;51.096;-115.366;2022-10-17T05:53:39;87485.80;;;9.00
74533;BMP180;63012;51.096;-115.366;2022-10-17T05:56:09;87487.40;;;9.00
74533;BMP180;63012;51.096;-115.366;2022-10-17T05:58:41;87480.60;;;9.00
74533;BMP180;63012;51.096;-115.366;2022-10-17T06:01:10;87480.20;;;9.00
74533;BMP180;63012;51.096;-115.366;2022-10-17T06:03:38;87485.60;;;8.96
74533;BMP180;63012;51.096;-115.366;2022-10-17T06:06:08;87483.40;;;8.92
74533;BMP180;63012;51.096;-115.366;2022-10-17T06:08:35;87476.00;;;8.98
74533;BMP180;63012;51.096;-115.366;2022-10-17T06:11:03;87478.80;;;8.98
74533;BMP180;63012;51.096;-115.366;2022-10-17T06:13:31;87479.00;;;9.00
74533;BMP180;63012;51.096;-115.366;2022-10-17T06:15:58;87477.40;;;9.00
74533;BMP180;63012;51.096;-115.366;2022-10-17T06:18:25;87465.60;;;8.90
74533;BMP180;63012;51.096;-115.366;2022-10-17T06:20:52;87477.20;;;8.90
74533;BMP180;63012;51.096;-115.366;2022-10-17T06:23:19;87479.00;;;8.90
74533;BMP180;63012;51.096;-115.366;2022-10-17T06:25:46;87484.60;;;8.90
74533;BMP180;63012;51.096;-115.366;2022-10-17T06:28:13;87470.20;;;8.90
74533;BMP180;63012;51.096;-115.366;2022-10-17T06:30:41;87465.40;;;8.80
74533;BMP180;63012;51.096;-115.366;2022-10-17T06:33:08;87465.00;;;8.72
74533;BMP180;63012;51.096;-115.366;2022-10-17T06:35:35;87469.60;;;8.70
74533;BMP180;63012;51.096;-115.366;2022-10-17T06:38:03;87463.60;;;8.60
74533;BMP180;63012;51.096;-115.366;2022-10-17T06:40:30;87470.60;;;8.60
74533;BMP180;63012;51.096;-115.366;2022-10-17T06:42:57;87462.00;;;8.62
74533;BMP180;63012;51.096;-115.366;2022-10-17T06:45:24;87460.80;;;8.70
74533;BMP180;63012;51.096;-115.366;2022-10-17T06:47:52;87461.80;;;8.70
74533;BMP180;63012;51.096;-115.366;2022-10-17T06:50:19;87462.60;;;8.70
74533;BMP180;63012;51.096;-115.366;2022-10-17T06:52:50;87464.60;;;8.70
74533;BMP180;63012;51.096;-115.366;2022-10-17T06:55:17;87454.40;;;8.70
74533;BMP180;63012;51.096;-115.366;2022-10-17T06:57:44;87456.20;;;8.76
74533;BMP180;63012;51.096;-115.366;2022-10-17T07:00:12;87450.00;;;8.80
74533;BMP180;63012;51.096;-115.366;2022-10-17T07:02:41;87469.20;;;8.80
74533;BMP180;63012;51.096;-115.366;2022-10-17T07:05:09;87470.20;;;8.78
74533;BMP180;63012;51.096;-115.366;2022-10-17T07:07:36;87469.80;;;8.72
74533;BMP180;63012;51.096;-115.366;2022-10-17T07:10:03;87465.80;;;8.70
74533;BMP180;63012;51.096;-115.366;2022-10-17T07:12:34;87448.60;;;8.70
74533;BMP180;63012;51.096;-115.366;2022-10-17T07:15:02;87467.80;;;8.62
74533;BMP180;63012;51.096;-115.366;2022-10-17T07:17:32;87463.60;;;8.60
74533;BMP180;63012;51.096;-115.366;2022-10-17T07:20:00;87474.20;;;8.54
74533;BMP180;63012;51.096;-115.366;2022-10-17T07:22:26;87466.60;;;8.50
74533;BMP180;63012;51.096;-115.366;2022-10-17T07:24:54;87471.40;;;8.50
74533;BMP180;63012;51.096;-115.366;2022-10-17T07:27:21;87467.40;;;8.60
74533;BMP180;63012;51.096;-115.366;2022-10-17T07:29:48;87480.00;;;8.60
74533;BMP180;63012;51.096;-115.366;2022-10-17T07:32:15;87474.80;;;8.70
74533;BMP180;63012;51.096;-115.366;2022-10-17T07:34:42;87471.00;;;8.68
74533;BMP180;63012;51.096;-115.366;2022-10-17T07:37:09;87472.40;;;8.60
74533;BMP180;63012;51.096;-115.366;2022-10-17T07:39:37;87483.00;;;8.60
74533;BMP180;63012;51.096;-115.366;2022-10-17T07:42:05;87468.00;;;8.60
74533;BMP180;63012;51.096;-115.366;2022-10-17T07:44:35;87476.20;;;8.60
74533;BMP180;63012;51.096;-115.366;2022-10-17T07:47:02;87470.80;;;8.50
74533;BMP180;63012;51.096;-115.366;2022-10-17T07:49:29;87471.20;;;8.50
74533;BMP180;63012;51.096;-115.366;2022-10-17T07:51:56;87479.40;;;8.40
74533;BMP180;63012;51.096;-115.366;2022-10-17T07:54:24;87468.60;;;8.34
74533;BMP180;63012;51.096;-115.366;2022-10-17T07:56:50;87470.80;;;8.20
74533;BMP180;63012;51.096;-115.366;2022-10-17T07:59:18;87482.60;;;8.10
74533;BMP180;63012;51.096;-115.366;2022-10-17T08:01:45;87479.20;;;8.16
74533;BMP180;63012;51.096;-115.366;2022-10-17T08:04:12;87463.60;;;8.20
74533;BMP180;63012;51.096;-115.366;2022-10-17T08:06:39;87472.60;;;8.20
74533;BMP180;63012;51.096;-115.366;2022-10-17T08:09:06;87465.40;;;8.26
74533;BMP180;63012;51.096;-115.366;2022-10-17T08:11:33;87465.80;;;8.34
74533;BMP180;63012;51.096;-115.366;2022-10-17T08:14:02;87475.40;;;8.40
74533;BMP180;63012;51.096;-115.366;2022-10-17T08:16:29;87475.80;;;8.38
74533;BMP180;63012;51.096;-115.366;2022-10-17T08:18:56;87470.60;;;8.34
74533;BMP180;63012;51.096;-115.366;2022-10-17T08:21:23;87473.80;;;8.30
74533;BMP180;63012;51.096;-115.366;2022-10-17T08:23:50;87474.00;;;8.30
74533;BMP180;63012;51.096;-115.366;2022-10-17T08:26:18;87477.20;;;8.20
74533;BMP180;63012;51.096;-115.366;2022-10-17T08:28:46;87472.60;;;8.14
74533;BMP180;63012;51.096;-115.366;2022-10-17T08:31:17;87472.40;;;8.10
74533;BMP180;63012;51.096;-115.366;2022-10-17T08:33:46;87468.60;;;8.10
74533;BMP180;63012;51.096;-115.366;2022-10-17T08:36:16;87471.20;;;8.00
74533;BMP180;63012;51.096;-115.366;2022-10-17T08:38:44;87474.60;;;8.00
74533;BMP180;63012;51.096;-115.366;2022-10-17T08:41:32;87477.40;;;7.90
74533;BMP180;63012;51.096;-115.366;2022-10-17T08:46:58;87481.80;;;8.00
74533;BMP180;63012;51.096;-115.366;2022-10-17T08:50:20;87473.40;;;8.00
74533;BMP180;63012;51.096;-115.366;2022-10-17T08:53:20;87472.80;;;8.00
74533;BMP180;63012;51.096;-115.366;2022-10-17T08:55:51;87474.20;;;7.98
74533;BMP180;63012;51.096;-115.366;2022-10-17T08:58:32;87464.00;;;8.00
74533;BMP180;63012;51.096;-115.366;2022-10-17T09:10:45;87449.20;;;7.88
74533;BMP180;63012;51.096;-115.366;2022-10-17T09:19:29;87435.20;;;8.00
74533;BMP180;63012;51.096;-115.366;2022-10-17T09:22:13;87431.00;;;7.92
74533;BMP180;63012;51.096;-115.366;2022-10-17T09:25:02;87431.00;;;7.90
74533;BMP180;63012;51.096;-115.366;2022-10-17T09:28:12;87439.40;;;7.90
74533;BMP180;63012;51.096;-115.366;2022-10-17T09:36:13;87424.00;;;7.80
74533;BMP180;63012;51.096;-115.366;2022-10-17T09:38:52;87433.60;;;7.74
74533;BMP180;63012;51.096;-115.366;2022-10-17T09:41:26;87418.00;;;7.70
74533;BMP180;63012;51.096;-115.366;2022-10-17T09:43:57;87432.80;;;7.70
74533;BMP180;63012;51.096;-115.366;2022-10-17T09:46:37;87429.00;;;7.70
74533;BMP180;63012;51.096;-115.366;2022-10-17T09:49:13;87436.20;;;7.60
74533;BMP180;63012;51.096;-115.366;2022-10-17T09:51:43;87433.40;;;7.60
74533;BMP180;63012;51.096;-115.366;2022-10-17T09:54:45;87432.00;;;7.60
74533;BMP180;63012;51.096;-115.366;2022-10-17T09:57:16;87431.00;;;7.60
74533;BMP180;63012;51.096;-115.366;2022-10-17T09:59:59;87423.60;;;7.54
74533;BMP180;63012;51.096;-115.366;2022-10-17T10:02:29;87419.00;;;7.50
74533;BMP180;63012;51.096;-115.366;2022-10-17T10:05:19;87417.20;;;7.50
74533;BMP180;63012;51.096;-115.366;2022-10-17T10:08:14;87423.00;;;7.50
74533;BMP180;63012;51.096;-115.366;2022-10-17T10:10:43;87412.20;;;7.42
74533;BMP180;63012;51.096;-115.366;2022-10-17T10:15:44;87415.80;;;7.40
74533;BMP180;63012;51.096;-115.366;2022-10-17T10:18:29;87414.60;;;7.40
74533;BMP180;63012;51.096;-115.366;2022-10-17T10:21:24;87409.20;;;7.34
74533;BMP180;63012;51.096;-115.366;2022-10-17T10:24:13;87405.80;;;7.30
74533;BMP180;63012;51.096;-115.366;2022-10-17T10:26:47;87415.60;;;7.30
74533;BMP180;63012;51.096;-115.366;2022-10-17T10:29:37;87416.20;;;7.20
74533;BMP180;63012;51.096;-115.366;2022-10-17T10:32:26;87409.00;;;7.20
74533;BMP180;63012;51.096;-115.366;2022-10-17T10:35:17;87407.40;;;7.10
74533;BMP180;63012;51.096;-115.366;2022-10-17T10:37:49;87415.40;;;7.10
74533;BMP180;63012;51.096;-115.366;2022-10-17T10:43:00;87412.20;;;7.10
74533;BMP180;63012;51.096;-115.366;2022-10-17T10:48:23;87410.20;;;7.10
74533;BMP180;63012;51.096;-115.366;2022-10-17T10:51:07;87413.60;;;7.00
74533;BMP180;63012;51.096;-115.366;2022-10-17T10:54:34;87410.20;;;7.00
74533;BMP180;63012;51.096;-115.366;2022-10-17T10:56:46;87417.00;;;6.98
74533;BMP180;63012;51.096;-115.366;2022-10-17T10:59:29;87422.00;;;6.90
74533;BMP180;63012;51.096;-115.366;2022-10-17T11:03:12;87409.40;;;6.90
74533;BMP180;63012;51.096;-115.366;2022-10-17T11:05:29;87411.80;;;6.80
74533;BMP180;63012;51.096;-115.366;2022-10-17T11:09:09;87412.80;;;6.80
74533;BMP180;63012;51.096;-115.366;2022-10-17T11:11:46;87418.00;;;6.80
74533;BMP180;63012;51.096;-115.366;2022-10-17T11:17:31;87409.20;;;6.70
74533;BMP180;63012;51.096;-115.366;2022-10-17T11:20:29;87410.00;;;6.70
74533;BMP180;63012;51.096;-115.366;2022-10-17T11:23:16;87416.00;;;6.70
74533;BMP180;63012;51.096;-115.366;2022-10-17T11:25:51;87419.00;;;6.62
74533;BMP180;63012;51.096;-115.366;2022-10-17T11:28:22;87424.80;;;6.60
74533;BMP180;63012;51.096;-115.366;2022-10-17T11:31:03;87421.40;;;6.60
74533;BMP180;63012;51.096;-115.366;2022-10-17T11:33:49;87425.00;;;6.60
74533;BMP180;63012;51.096;-115.366;2022-10-17T11:36:44;87419.80;;;6.50
74533;BMP180;63012;51.096;-115.366;2022-10-17T11:42:36;87418.20;;;6.50
74533;BMP180;63012;51.096;-115.366;2022-10-17T11:45:18;87421.80;;;6.40
74533;BMP180;63012;51.096;-115.366;2022-10-17T11:47:57;87431.40;;;6.38
74533;BMP180;63012;51.096;-115.366;2022-10-17T11:50:35;87426.80;;;6.40
74533;BMP180;63012;51.096;-115.366;2022-10-17T11:53:21;87427.20;;;6.40
74533;BMP180;63012;51.096;-115.366;2022-10-17T11:55:51;87427.40;;;6.40
74533;BMP180;63012;51.096;-115.366;2022-10-17T11:58:44;87424.80;;;6.40
74533;BMP180;63012;51.096;-115.366;2022-10-17T12:24:44;87422.40;;;6.30
74533;BMP180;63012;51.096;-115.366;2022-10-17T12:27:45;87425.40;;;6.30
74533;BMP180;63012;51.096;-115.366;2022-10-17T12:33:25;87423.00;;;6.20
74533;BMP180;63012;51.096;-115.366;2022-10-17T12:47:25;87406.00;;;6.20
74533;BMP180;63012;51.096;-115.366;2022-10-17T12:49:48;87414.20;;;6.20
74533;BMP180;63012;51.096;-115.366;2022-10-17T12:52:50;87408.00;;;6.20
74533;BMP180;63012;51.096;-115.366;2022-10-17T12:55:18;87404.00;;;6.12
74533;BMP180;63012;51.096;-115.366;2022-10-17T12:58:12;87401.00;;;6.10
74533;BMP180;63012;51.096;-115.366;2022-10-17T13:00:59;87409.80;;;6.06
74533;BMP180;63012;51.096;-115.366;2022-10-17T13:03:32;87412.20;;;6.00
74533;BMP180;63012;51.096;-115.366;2022-10-17T13:06:05;87409.20;;;6.00
74533;BMP180;63012;51.096;-115.366;2022-10-17T13:08:38;87407.20;;;6.00
74533;BMP180;63012;51.096;-115.366;2022-10-17T13:11:09;87413.60;;;6.00
74533;BMP180;63012;51.096;-115.366;2022-10-17T13:13:45;87409.20;;;6.00
74533;BMP180;63012;51.096;-115.366;2022-10-17T13:16:31;87419.80;;;6.00
74533;BMP180;63012;51.096;-115.366;2022-10-17T13:19:01;87415.80;;;6.00
74533;BMP180;63012;51.096;-115.366;2022-10-17T13:21:29;87420.40;;;6.00
74533;BMP180;63012;51.096;-115.366;2022-10-17T13:23:56;87416.60;;;5.90
74533;BMP180;63012;51.096;-115.366;2022-10-17T13:26:28;87429.40;;;5.90
74533;BMP180;63012;51.096;-115.366;2022-10-17T13:29:13;87428.60;;;5.90
74533;BMP180;63012;51.096;-115.366;2022-10-17T13:31:43;87424.40;;;5.90
74533;BMP180;63012;51.096;-115.366;2022-10-17T13:34:22;87427.20;;;5.90
74533;BMP180;63012;51.096;-115.366;2022-10-17T13:37:02;87424.80;;;5.90
74533;BMP180;63012;51.096;-115.366;2022-10-17T13:39:40;87426.20;;;5.90
74533;BMP180;63012;51.096;-115.366;2022-10-17T13:42:24;87431.80;;;5.80
74533;BMP180;63012;51.096;-115.366;2022-10-17T13:44:52;87442.40;;;5.80
74533;BMP180;63012;51.096;-115.366;2022-10-17T13:47:31;87454.80;;;5.74
74533;BMP180;63012;51.096;-115.366;2022-10-17T13:50:00;87467.20;;;5.70
74533;BMP180;63012;51.096;-115.366;2022-10-17T13:52:29;87466.80;;;5.70
74533;BMP180;63012;51.096;-115.366;2022-10-17T13:55:11;87448.60;;;5.72
74533;BMP180;63012;51.096;-115.366;2022-10-17T13:57:40;87465.00;;;5.80
74533;BMP180;63012;51.096;-115.366;2022-10-17T14:00:18;87461.80;;;5.80
74533;BMP180;63012;51.096;-115.366;2022-10-17T14:02:46;87457.40;;;5.90
74533;BMP180;63012;51.096;-115.366;2022-10-17T14:05:19;87467.40;;;5.90
74533;BMP180;63012;51.096;-115.366;2022-10-17T14:08:03;87468.00;;;5.90
74533;BMP180;63012;51.096;-115.366;2022-10-17T14:10:36;87481.80;;;5.90
74533;BMP180;63012;51.096;-115.366;2022-10-17T14:13:06;87475.00;;;5.80
74533;BMP180;63012;51.096;-115.366;2022-10-17T14:15:45;87479.60;;;5.80
74533;BMP180;63012;51.096;-115.366;2022-10-17T14:18:24;87484.00;;;5.72
74533;BMP180;63012;51.096;-115.366;2022-10-17T14:20:53;87486.80;;;5.70
74533;BMP180;63012;51.096;-115.366;2022-10-17T14:23:46;87499.20;;;5.70
74533;BMP180;63012;51.096;-115.366;2022-10-17T14:26:22;87504.20;;;5.70
74533;BMP180;63012;51.096;-115.366;2022-10-17T14:29:21;87499.00;;;5.70
74533;BMP180;63012;51.096;-115.366;2022-10-17T14:31:49;87483.40;;;5.70
74533;BMP180;63012;51.096;-115.366;2022-10-17T14:34:32;87474.80;;;5.70
74533;BMP180;63012;51.096;-115.366;2022-10-17T14:37:00;87479.40;;;5.70
74533;BMP180;63012;51.096;-115.366;2022-10-17T14:39:28;87488.00;;;5.78
74533;BMP180;63012;51.096;-115.366;2022-10-17T14:41:55;87478.40;;;5.80
74533;BMP180;63012;51.096;-115.366;2022-10-17T14:44:25;87489.20;;;5.90
74533;BMP180;63012;51.096;-115.366;2022-10-17T14:47:03;87504.00;;;5.90
74533;BMP180;63012;51.096;-115.366;2022-10-17T14:49:39;87483.60;;;6.00
74533;BMP180;63012;51.096;-115.366;2022-10-17T14:55:27;87490.60;;;6.10
74533;BMP180;63012;51.096;-115.366;2022-10-17T14:57:55;87486.80;;;6.10
74533;BMP180;63012;51.096;-115.366;2022-10-17T15:00:24;87493.60;;;6.02
74533;BMP180;63012;51.096;-115.366;2022-10-17T15:02:53;87493.40;;;6.00
74533;BMP180;63012;51.096;-115.366;2022-10-17T15:05:20;87496.60;;;5.90
74533;BMP180;63012;51.096;-115.366;2022-10-17T15:07:49;87502.20;;;5.90
74533;BMP180;63012;51.096;-115.366;2022-10-17T15:10:31;87504.60;;;5.80
74533;BMP180;63012;51.096;-115.366;2022-10-17T15:13:00;87506.80;;;5.78
74533;BMP180;63012;51.096;-115.366;2022-10-17T15:15:29;87522.40;;;5.72
74533;BMP180;63012;51.096;-115.366;2022-10-17T15:17:58;87508.80;;;5.70
74533;BMP180;63012;51.096;-115.366;2022-10-17T15:20:27;87490.60;;;5.70
74533;BMP180;63012;51.096;-115.366;2022-10-17T15:23:00;87501.00;;;5.70
74533;BMP180;63012;51.096;-115.366;2022-10-17T15:25:30;87508.00;;;5.78
74533;BMP180;63012;51.096;-115.366;2022-10-17T15:27:57;87506.00;;;5.80
74533;BMP180;63012;51.096;-115.366;2022-10-17T15:30:30;87497.20;;;5.76
74533;BMP180;63012;51.096;-115.366;2022-10-17T15:33:00;87505.60;;;5.70
74533;BMP180;63012;51.096;-115.366;2022-10-17T15:35:27;87508.80;;;5.70
74533;BMP180;63012;51.096;-115.366;2022-10-17T15:37:55;87511.60;;;5.60
74533;BMP180;63012;51.096;-115.366;2022-10-17T15:40:28;87518.40;;;5.60
74533;BMP180;63012;51.096;-115.366;2022-10-17T15:42:56;87514.40;;;5.54
74533;BMP180;63012;51.096;-115.366;2022-10-17T15:45:23;87510.00;;;5.50
74533;BMP180;63012;51.096;-115.366;2022-10-17T15:48:01;87506.20;;;5.50
74533;BMP180;63012;51.096;-115.366;2022-10-17T15:50:30;87504.20;;;5.50
74533;BMP180;63012;51.096;-115.366;2022-10-17T15:52:57;87504.20;;;5.50
74533;BMP180;63012;51.096;-115.366;2022-10-17T15:55:24;87509.20;;;5.60